createdAt,value
2023-04-29T00:01:38.218Z,45.73
2023-04-29T00:06:40.359Z,45.56
2023-04-29T00:11:42.108Z,45.76
2023-04-29T00:16:43.948Z,45.69
2023-04-29T00:21:45.812Z,45.56
2023-04-29T00:26:47.635Z,45.75
2023-04-29T00:31:49.704Z,45.65
2023-04-29T00:36:51.481Z,45.73
2023-04-29T00:41:53.777Z,45.29
2023-04-29T00:46:56.108Z,45.70
2023-04-29T00:51:58.368Z,45.54
2023-04-29T00:57:01.930Z,45.49
2023-04-29T01:02:04.671Z,45.43
2023-04-29T01:07:23.675Z,45.47
2023-04-29T01:12:37.265Z,45.63
2023-04-29T01:17:47.964Z,45.28
2023-04-29T01:22:49.758Z,45.11
2023-04-29T01:28:09.032Z,45.08
2023-04-29T01:33:29.505Z,44.96
2023-04-29T01:38:45.101Z,45.29
2023-04-29T01:43:50.218Z,44.99
2023-04-29T01:48:55.411Z,45.04
2023-04-29T01:53:57.609Z,45.06
2023-04-29T01:58:59.345Z,44.84
2023-04-29T02:04:01.190Z,45.13
2023-04-29T02:09:03.299Z,45.07
2023-04-29T02:14:05.071Z,44.99
2023-04-29T02:19:06.831Z,44.88
2023-04-29T02:24:08.647Z,45.10
2023-04-29T02:29:10.567Z,44.73
2023-04-29T02:34:12.287Z,44.85
2023-04-29T02:39:14.143Z,44.58
2023-04-29T02:44:16.157Z,44.49
2023-04-29T02:49:17.973Z,44.66
2023-04-29T02:54:20.152Z,44.60
2023-04-29T02:59:22.714Z,44.80
2023-04-29T03:04:24.919Z,44.63
2023-04-29T03:09:26.934Z,44.36
2023-04-29T03:14:28.787Z,44.84
2023-04-29T03:19:31.057Z,44.60
2023-04-29T03:24:32.976Z,44.32
2023-04-29T03:29:34.754Z,44.47
2023-04-29T03:34:37.088Z,44.25
2023-04-29T03:39:38.880Z,44.14
2023-04-29T03:44:40.731Z,44.50
2023-04-29T03:49:42.845Z,44.08
2023-04-29T03:54:44.688Z,44.32
2023-04-29T03:59:50.629Z,44.40
2023-04-29T04:04:53.099Z,44.25
2023-04-29T04:09:55.274Z,44.20
2023-04-29T04:14:57.756Z,44.06
2023-04-29T04:19:59.538Z,44.34
2023-04-29T04:25:01.438Z,44.07
2023-04-29T04:30:03.359Z,44.37
2023-04-29T04:35:06.736Z,44.18
2023-04-29T04:40:09.534Z,44.04
2023-04-29T04:45:11.722Z,43.91
2023-04-29T04:50:13.578Z,43.82
2023-04-29T04:55:15.564Z,43.92
2023-04-29T05:00:17.598Z,43.95
2023-04-29T05:05:19.361Z,43.91
2023-04-29T05:10:21.253Z,43.88
2023-04-29T05:15:23.027Z,44.22
2023-04-29T05:20:24.973Z,44.00
2023-04-29T05:25:26.772Z,43.72
2023-04-29T05:30:28.652Z,44.14
2023-04-29T05:35:31.337Z,43.89
2023-04-29T05:40:33.120Z,43.68
2023-04-29T05:45:34.884Z,43.75
2023-04-29T05:50:36.655Z,43.84
2023-04-29T05:55:39.593Z,43.77
2023-04-29T06:00:41.448Z,43.65
2023-04-29T06:05:43.541Z,43.80
2023-04-29T06:10:46.531Z,44.00
2023-04-29T06:15:48.436Z,43.62
2023-04-29T06:20:50.219Z,44.69
2023-04-29T06:25:53.079Z,44.55
2023-04-29T06:30:55.138Z,45.14
2023-04-29T06:35:57.367Z,45.10
2023-04-29T06:41:01.109Z,44.77
2023-04-29T06:46:03.212Z,44.54
2023-04-29T06:51:05.117Z,44.31
2023-04-29T06:56:07.506Z,44.29
2023-04-29T07:01:09.590Z,44.34
2023-04-29T07:06:11.406Z,44.06
2023-04-29T07:11:13.252Z,44.24
2023-04-29T07:16:20.221Z,44.10
2023-04-29T07:21:22.061Z,44.22
2023-04-29T07:26:23.848Z,43.85
2023-04-29T07:31:25.766Z,43.74
2023-04-29T07:36:28.975Z,44.37
2023-04-29T07:41:31.345Z,45.72
2023-04-29T07:46:33.166Z,45.17
2023-04-29T07:51:35.018Z,44.85
2023-04-29T07:56:36.801Z,44.56
2023-04-29T08:01:38.800Z,44.56
2023-04-29T08:06:41.995Z,44.51
2023-04-29T08:11:45.107Z,44.37
2023-04-29T08:16:47.062Z,44.33
2023-04-29T08:21:48.890Z,44.26
2023-04-29T08:26:51.182Z,44.12
2023-04-29T08:31:53.312Z,44.23
2023-04-29T08:36:55.138Z,43.79
2023-04-29T08:41:57.646Z,43.71
2023-04-29T08:47:00.535Z,43.57
2023-04-29T08:52:02.997Z,43.56
2023-04-29T08:57:06.706Z,43.63
2023-04-29T09:02:13.396Z,43.42
2023-04-29T09:07:17.031Z,43.52
2023-04-29T09:12:18.979Z,43.22
2023-04-29T09:17:39.229Z,43.52
2023-04-29T09:23:01.737Z,43.36
2023-04-29T09:28:17.114Z,43.44
2023-04-29T09:33:18.941Z,43.12
2023-04-29T09:38:22.279Z,43.15
2023-04-29T09:43:24.216Z,43.12
2023-04-29T09:48:31.908Z,42.91
2023-04-29T09:53:38.106Z,42.87
2023-04-29T09:58:40.616Z,43.08
2023-04-29T10:03:44.046Z,43.04
2023-04-29T10:08:48.856Z,42.79
2023-04-29T10:13:52.458Z,42.86
2023-04-29T10:18:56.692Z,43.11
2023-04-29T10:23:59.993Z,42.96
2023-04-29T10:29:02.476Z,42.79
2023-04-29T10:34:04.349Z,43.03
2023-04-29T10:39:14.021Z,43.02
2023-04-29T10:44:16.031Z,42.67
2023-04-29T10:49:17.832Z,42.62
2023-04-29T10:54:25.766Z,42.68
2023-04-29T10:59:33.381Z,42.66
2023-04-29T11:04:35.227Z,42.56
2023-04-29T11:09:38.906Z,42.66
2023-04-29T11:14:40.686Z,42.33
2023-04-29T11:19:49.337Z,42.39
2023-04-29T11:25:02.508Z,42.23
2023-04-29T11:30:07.902Z,42.43
2023-04-29T11:35:14.819Z,42.96
2023-04-29T11:40:17.288Z,42.81
2023-04-29T11:45:19.902Z,42.60
2023-04-29T11:50:21.719Z,42.59
2023-04-29T11:55:23.545Z,42.47
2023-04-29T12:00:25.392Z,42.52
2023-04-29T12:05:27.372Z,42.45
2023-04-29T12:10:29.373Z,42.36
2023-04-29T12:15:32.831Z,42.74
2023-04-29T12:20:34.797Z,42.50
2023-04-29T12:25:36.762Z,42.70
2023-04-29T12:30:38.597Z,42.64
2023-04-29T12:35:40.473Z,42.76
2023-04-29T12:40:42.321Z,42.53
2023-04-29T12:45:44.249Z,42.32
2023-04-29T12:50:49.991Z,42.26
2023-04-29T12:55:52.520Z,42.37
2023-04-29T13:00:54.331Z,42.40
2023-04-29T13:05:56.235Z,42.36
2023-04-29T13:10:58.171Z,42.42
2023-04-29T13:16:00.752Z,42.46
2023-04-29T13:21:02.894Z,42.13
2023-04-29T13:26:05.546Z,42.08
2023-04-29T13:31:07.329Z,42.16
2023-04-29T13:36:09.308Z,42.28
2023-04-29T13:41:16.373Z,42.04
2023-04-29T13:46:20.783Z,42.35
2023-04-29T13:52:02.180Z,42.17
2023-04-29T14:06:56.820Z,42.60
2023-04-29T14:11:58.698Z,42.35
2023-04-29T14:17:01.587Z,42.48
2023-04-29T14:22:03.813Z,42.50
2023-04-29T14:27:05.623Z,43.39
2023-04-29T14:32:07.777Z,43.10
2023-04-29T14:37:09.569Z,43.38
2023-04-29T14:42:13.024Z,43.79
2023-04-29T14:47:14.884Z,43.73
2023-04-29T14:52:16.833Z,44.45
2023-04-29T14:57:18.635Z,44.95
2023-04-29T15:02:20.483Z,45.18
2023-04-29T15:07:23.044Z,45.45
2023-04-29T15:12:25.406Z,45.37
2023-04-29T15:17:27.364Z,45.48
2023-04-29T15:22:29.450Z,45.70
2023-04-29T15:27:31.246Z,45.77
2023-04-29T15:32:33.437Z,45.79
2023-04-29T15:37:35.344Z,44.19
2023-04-29T15:42:37.241Z,44.58
2023-04-29T15:47:39.170Z,44.74
2023-04-29T15:52:41.104Z,45.52
2023-04-29T15:57:43.038Z,45.70
2023-04-29T16:02:45.361Z,45.81
2023-04-29T16:07:47.158Z,45.34
2023-04-29T16:12:49.343Z,45.52
2023-04-29T16:17:52.190Z,45.48
2023-04-29T16:22:54.095Z,45.28
2023-04-29T16:27:55.980Z,44.57
2023-04-29T16:32:57.939Z,44.78
2023-04-29T16:37:59.855Z,44.33
2023-04-29T16:43:01.710Z,43.74
2023-04-29T16:48:03.734Z,43.17
2023-04-29T16:53:05.876Z,43.31
2023-04-29T16:58:07.663Z,42.97
2023-04-29T17:03:10.022Z,42.75
2023-04-29T17:08:11.962Z,42.57
2023-04-29T17:13:13.762Z,42.36
2023-04-29T17:18:15.764Z,41.76
2023-04-29T17:23:17.642Z,42.13
2023-04-29T17:28:19.910Z,41.98
2023-04-29T17:33:22.639Z,42.14
2023-04-29T17:38:24.484Z,42.29
2023-04-29T17:43:27.558Z,42.36
2023-04-29T17:48:29.313Z,42.47
2023-04-29T17:53:33.347Z,42.43
2023-04-29T17:58:35.141Z,42.30
2023-04-29T18:03:36.966Z,42.45
2023-04-29T18:08:38.928Z,42.61
2023-04-29T18:13:41.481Z,42.53
2023-04-29T18:18:43.496Z,42.66
2023-04-29T18:23:45.389Z,42.78
2023-04-29T18:28:48.140Z,42.80
2023-04-29T18:33:49.914Z,42.73
2023-04-29T18:38:51.847Z,42.63
2023-04-29T18:43:53.661Z,42.40
2023-04-29T18:48:55.394Z,42.44
2023-04-29T18:53:57.280Z,42.21
2023-04-29T18:58:59.084Z,42.45
2023-04-29T19:04:04.726Z,42.19
2023-04-29T19:09:06.681Z,42.47
2023-04-29T19:14:08.582Z,42.26
2023-04-29T19:19:10.356Z,42.36
2023-04-29T19:24:12.430Z,42.29
2023-04-29T19:29:14.213Z,42.57
2023-04-29T19:34:16.376Z,42.24
2023-04-29T19:39:18.791Z,42.48
2023-04-29T19:44:20.602Z,42.44
2023-04-29T19:49:22.454Z,42.28
2023-04-29T19:54:24.257Z,42.24
2023-04-29T19:59:26.562Z,42.41
2023-04-29T20:04:28.483Z,42.63
2023-04-29T20:09:31.867Z,42.89
2023-04-29T20:14:33.781Z,43.16
2023-04-29T20:19:35.657Z,43.23
2023-04-29T20:24:37.419Z,43.46
2023-04-29T20:29:39.265Z,43.47
2023-04-29T20:34:41.016Z,43.60
2023-04-29T20:39:43.366Z,44.44
2023-04-29T20:44:45.312Z,44.39
2023-04-29T20:49:47.085Z,44.69
2023-04-29T20:54:48.994Z,44.46
2023-04-29T20:59:51.828Z,43.85
2023-04-29T21:04:53.874Z,43.17
2023-04-29T21:09:56.128Z,43.00
2023-04-29T21:14:58.127Z,42.72
2023-04-29T21:20:00.047Z,42.59
2023-04-29T21:25:01.886Z,43.22
2023-04-29T21:30:05.183Z,43.09
2023-04-29T21:35:07.982Z,43.14
2023-04-29T21:40:10.439Z,43.12
2023-04-29T21:45:17.891Z,43.34
2023-04-29T21:50:19.974Z,43.04
2023-04-29T21:55:21.949Z,42.93
2023-04-29T22:00:41.274Z,43.04
2023-04-29T22:05:43.180Z,42.67
2023-04-29T22:10:44.985Z,42.93
2023-04-29T22:15:46.831Z,42.88
2023-04-29T22:20:48.571Z,42.73
2023-04-29T22:25:50.337Z,42.71
2023-04-29T22:30:52.335Z,42.78
2023-04-29T22:35:54.183Z,42.80
2023-04-29T22:40:56.013Z,42.93
2023-04-29T22:45:57.867Z,42.74
2023-04-29T22:50:59.791Z,42.68
2023-04-29T22:56:02.359Z,42.58
2023-04-29T23:01:04.179Z,42.68
2023-04-29T23:06:06.989Z,42.82
2023-04-29T23:11:08.897Z,42.49
2023-04-29T23:16:11.269Z,42.58
2023-04-29T23:21:13.045Z,42.43
2023-04-29T23:26:14.800Z,42.43
2023-04-29T23:31:16.840Z,42.43
2023-04-29T23:36:18.750Z,42.69
2023-04-29T23:41:21.086Z,42.65
2023-04-29T23:46:23.165Z,42.70
2023-04-29T23:51:26.480Z,42.42
2023-04-29T23:56:33.170Z,42.71
